Flight Track Log - Related Links

Times and Time Zones

All times are in EDT time to prevent confusion due to time zone crossing. See the N8082R flight status page for this flight to view local times or setup timezone preferences in your user account.

Time Position Orientation Groundspeed Altitude Reporting Facility
EDT Latitude Longitude Course Direction KTS MPH feet Rate Location/Type
Wed 02:44:40 PM 34.5489 -84.4853 151° Southeast 161 185 4,200  Level Atlanta Center
Wed 02:45:40 PM 34.5219 -84.4675 140° Southeast 134 154 5,200 950 Climbing Atlanta Center
Wed 02:46:40 PM 34.4969 -84.4419 115° Southeast 117 135 6,100 850 Climbing Atlanta Center
Wed 02:47:40 PM 34.4825 -84.4042 108° East 111 128 6,900 450 Climbing Atlanta Center
Wed 02:48:40 PM 34.4722 -84.3664 115° Southeast 119 137 7,000 50 Climbing Atlanta Center
Wed 02:49:40 PM 34.4533 -84.3183 126° Southeast 138 159 7,000  Level Atlanta Center
Wed 02:50:40 PM 34.4264 -84.2731 122° Southeast 153 176 7,000  Level Atlanta Center
Wed 02:51:40 PM 34.4056 -84.2325 112° Southeast 160 184 7,000 -50 Level Atlanta Center
Wed 02:52:40 PM 34.3889 -84.1822 111° Southeast 155 178 6,900  Descending Atlanta Center
Wed 02:53:41 PM 34.3722 -84.1294 107° East 150 173 7,000 50 Climbing Atlanta Center
Wed 02:54:40 PM 34.3578 -84.0739 112° Southeast 155 178 7,000 -67 Level Atlanta Center
Wed 02:55:10 PM 34.3500 -84.0500 112° Southeast 163 188 6,900  Descending Atlanta TRACON
Wed 02:56:10 PM 34.3333 -84.0000 112° Southeast 156 180 7,000 50 Climbing Atlanta TRACON
Wed 02:57:10 PM 34.3167 -83.9500 112° Southeast 160 184 7,000 50 Level Atlanta TRACON
Wed 02:58:10 PM 34.3000 -83.9000 112° Southeast 157 181 7,100  Climbing Atlanta TRACON
Wed 02:59:10 PM 34.2833 -83.8500 129° Southeast 166 191 7,000 -67 Descending Atlanta TRACON
Wed 02:59:40 PM 34.2700 -83.8300 158° South 155 178 7,000  Level Atlanta Center
Wed 03:00:40 PM 34.2303 -83.8103 157° South 148 170 7,000  Level Atlanta Center
Wed 03:01:40 PM 34.1906 -83.7903 158° South 154 177 7,000  Level Atlanta Center
Wed 03:02:40 PM 34.1550 -83.7728 157° South 154 177 7,000  Level Atlanta Center
Wed 03:03:40 PM 34.1153 -83.7528 157° South 154 177 7,000  Level Atlanta Center
Wed 03:04:40 PM 34.0756 -83.7328 159° South 154 177 7,000  Level Atlanta Center
Wed 03:07:10 PM 33.9667 -83.6833 157° South 152 175 7,000  Level Atlanta TRACON
Wed 03:08:10 PM 33.9333 -83.6667 165° South 155 178 7,000  Level Atlanta TRACON
Wed 03:09:11 PM 33.8833 -83.6500 140° Southeast 154 177 7,000  Level Atlanta TRACON
Wed 03:10:11 PM 33.8500 -83.6167 157° South 156 180 7,000  Level Atlanta TRACON
Wed 03:11:11 PM 33.8167 -83.6000 165° South 153 176 7,000  Level Atlanta TRACON
Wed 03:12:11 PM 33.7667 -83.5833 157° South 154 177 7,000  Level Atlanta TRACON
Wed 03:13:11 PM 33.7333 -83.5667 165° South 155 178 7,000  Level Atlanta TRACON
Wed 03:14:11 PM 33.6833 -83.5500 157° South 153 176 7,000  Level Atlanta TRACON
Wed 03:15:11 PM 33.6500 -83.5333 140° Southeast 156 180 7,000  Level Atlanta TRACON
Wed 03:16:11 PM 33.6167 -83.5000 164° South 153 176 7,000  Level Atlanta TRACON
Wed 03:17:11 PM 33.5667 -83.4833 157° South 155 178 7,000  Level Atlanta TRACON
Wed 03:18:11 PM 33.5333 -83.4667 164° South 155 178 7,000  Level Atlanta TRACON
Wed 03:19:11 PM 33.4833 -83.4500 157° South 158 182 7,000  Level Atlanta TRACON
Wed 03:20:11 PM 33.4500 -83.4333 157° South 155 178 7,000  Level Atlanta TRACON
Wed 03:21:11 PM 33.4167 -83.4167 164° South 152 175 7,000  Level Atlanta TRACON
Wed 03:22:11 PM 33.3667 -83.4000 157° South 152 175 7,000  Level Atlanta TRACON
Wed 03:23:11 PM 33.3333 -83.3833 140° Southeast 152 175 7,000 -50 Level Atlanta TRACON
Wed 03:24:11 PM 33.3000 -83.3500 164° South 155 178 6,900 -50 Descending Atlanta TRACON
Wed 03:25:11 PM 33.2500 -83.3333 157° South 152 175 6,900  Level Atlanta TRACON
Wed 03:26:11 PM 33.2167 -83.3167 157° South 157 181 6,900  Level Atlanta TRACON
Wed 03:27:11 PM 33.1833 -83.3000 164° South 154 177 6,900  Level Atlanta TRACON
Wed 03:28:11 PM 33.1333 -83.2833 157° South 154 177 6,900  Level Atlanta TRACON
Wed 03:29:11 PM 33.1000 -83.2667 151° Southeast 155 178 6,900  Level Atlanta TRACON
Wed 03:30:11 PM 33.0500 -83.2333 157° South 158 182 6,900  Level Atlanta TRACON
Wed 03:31:11 PM 33.0167 -83.2167 164° South 159 183 6,900  Level Atlanta TRACON
Wed 03:32:11 PM 32.9667 -83.2000 157° South 156 180 6,900  Level Atlanta TRACON
Wed 03:33:11 PM 32.9333 -83.1833 157° South 156 180 6,900  Level Atlanta TRACON
Wed 03:34:11 PM 32.9000 -83.1667 164° South 155 178 6,900  Level Atlanta TRACON
Wed 03:35:11 PM 32.8500 -83.1500 157° South 154 177 6,900  Level Atlanta TRACON
Wed 03:36:11 PM 32.8167 -83.1333 164° South 153 176 6,900  Level Atlanta TRACON
Wed 03:37:11 PM 32.7667 -83.1167 140° Southeast 151 174 6,900  Level Atlanta TRACON
Wed 03:38:11 PM 32.7333 -83.0833 157° South 153 176 6,900  Level Atlanta TRACON
Wed 03:39:11 PM 32.7000 -83.0667 164° South 155 178 6,900  Level Atlanta TRACON
Wed 03:40:11 PM 32.6500 -83.0500 160° South 154 177 6,900 34 Level Atlanta TRACON
Wed 03:42:10 PM 32.5778 -83.0183 155° Southeast 157 181 7,000 34 Climbing Jacksonville Center
Wed 03:43:10 PM 32.5381 -82.9961 157° South 157 181 7,000  Level Jacksonville Center
Wed 03:44:10 PM 32.4983 -82.9764 160° South 157 181 7,000  Level Jacksonville Center
Wed 03:45:10 PM 32.4589 -82.9592 160° South 152 175 7,000  Level Jacksonville Center
Wed 03:46:10 PM 32.4192 -82.9417 158° South 152 175 7,000  Level Jacksonville Center
Wed 03:47:10 PM 32.3794 -82.9222 160° South 152 175 7,000  Level Jacksonville Center
Wed 03:48:10 PM 32.3397 -82.9050 157° South 152 175 7,000  Level Jacksonville Center
Wed 03:49:10 PM 32.3003 -82.8853 159° South 152 175 7,000  Level Jacksonville Center
Wed 03:50:10 PM 32.2625 -82.8681 155° Southeast 147 169 7,000  Level Jacksonville Center
Wed 03:51:10 PM 32.2228 -82.8458 160° South 147 169 7,000  Level Jacksonville Center
Wed 03:52:10 PM 32.1833 -82.8289 159° South 147 169 7,000  Level Jacksonville Center
Wed 03:53:10 PM 32.1456 -82.8117 158° South 147 169 7,000  Level Jacksonville Center
Wed 03:54:10 PM 32.1039 -82.7919 159° South 152 175 7,000  Level Jacksonville Center
Wed 03:55:10 PM 32.0664 -82.7750 157° South 152 175 7,000 -50 Level Jacksonville Center
Wed 03:56:10 PM 32.0267 -82.7553 156° South 145 167 6,900  Descending Jacksonville Center
Wed 03:57:10 PM 31.9889 -82.7358 158° South 151 174 7,000 50 Climbing Jacksonville Center
Wed 03:58:10 PM 31.9472 -82.7164 161° South 151 174 7,000  Level Jacksonville Center
Wed 03:59:10 PM 31.9053 -82.6992 156° South 151 174 7,000  Level Jacksonville Center
Wed 04:00:10 PM 31.8678 -82.6797 161° South 151 174 7,000  Level Jacksonville Center
Wed 04:01:10 PM 31.8261 -82.6628 158° South 151 174 7,000  Level Jacksonville Center
Wed 04:02:10 PM 31.7842 -82.6433 158° South 151 174 7,000 -250 Level Jacksonville Center
Wed 04:03:10 PM 31.7425 -82.6239 158° South 151 174 6,500 -500 Descending Jacksonville Center
Wed 04:04:10 PM 31.7006 -82.6044 159° South 157 181 6,000 -600 Descending Jacksonville Center
Wed 04:05:10 PM 31.6567 -82.5850 161° South 157 181 5,300 -500 Descending Jacksonville Center
Wed 04:06:10 PM 31.6150 -82.5681 161° South 162 186 5,000 -300 Descending Jacksonville Center

Login

Don't have an account? Register now (free) for customized features, flight alerts, and more!